Time;durP1;ratioP1;P1;durP2;ratioP2;P2;SDS_P1;SDS_P2;PMS_P1;PMS_P2;Temp;Humidity;BMP_temperature;BMP_pressure;BME280_temperature;BME280_humidity;BME280_pressure;Samples;Min_cycle;Max_cycle;Signal;HPM_P1;HPM_P2
2022/01/20 00:02:27;;;;;;;9.18;2.05;;;3.70;99.90;;;;;;2134999;66;20206;-74
2022/01/20 00:05:30;;;;;;;7.18;1.67;;;3.70;99.90;;;;;;2121367;67;20312;-73
2022/01/20 00:08:34;;;;;;;7.85;2.00;;;3.70;99.90;;;;;;2129226;67;20253;-73
2022/01/20 00:26:25;;;;;;;6.97;2.20;;;3.80;99.90;;;;;;2146441;66;20223;-74
2022/01/20 00:29:16;;;;;;;11.10;2.40;;;3.90;99.90;;;;;;2132340;67;20232;-73
2022/01/20 00:32:10;;;;;;;9.32;1.95;;;3.90;99.90;;;;;;2133353;67;20435;-73
2022/01/20 00:37:15;;;;;;;7.68;2.08;;;3.90;99.90;;;;;;2131439;67;20270;-73
2022/01/20 00:37:54;;;;;;;7.35;2.60;;;3.80;99.90;;;;;;2126126;67;20723;-74
2022/01/20 00:40:36;;;;;;;11.30;2.83;;;3.80;99.90;;;;;;2125070;67;20184;-75
2022/01/20 00:43:17;;;;;;;11.75;2.03;;;3.80;99.90;;;;;;2131596;67;20215;-73
2022/01/20 00:45:59;;;;;;;20.88;3.03;;;3.80;99.90;;;;;;2121881;67;20305;-74
2022/01/20 00:48:42;;;;;;;8.68;2.88;;;3.70;99.90;;;;;;2124830;67;20235;-73
2022/01/20 00:51:27;;;;;;;10.55;2.35;;;3.80;99.90;;;;;;2120651;67;20329;-74
2022/01/20 00:54:09;;;;;;;9.13;2.60;;;3.70;99.90;;;;;;2127766;67;20342;-73
2022/01/20 00:56:51;;;;;;;15.95;3.55;;;3.70;99.90;;;;;;2139200;67;20163;-73
2022/01/20 00:59:32;;;;;;;11.40;2.55;;;3.70;99.90;;;;;;2151984;66;20283;-74
2022/01/20 01:02:14;;;;;;;10.25;2.47;;;3.70;99.90;;;;;;2144937;66;20299;-73
2022/01/20 01:04:56;;;;;;;10.63;2.65;;;3.90;99.90;;;;;;2151662;66;20320;-74
2022/01/20 01:07:47;;;;;;;10.45;1.77;;;3.90;99.90;;;;;;2124173;67;20193;-73
2022/01/20 01:10:33;;;;;;;7.60;1.52;;;4.10;99.90;;;;;;2129639;67;20218;-75
2022/01/20 01:13:18;;;;;;;8.00;1.67;;;4.00;99.90;;;;;;2124649;67;20333;-74
2022/01/20 01:16:04;;;;;;;8.30;1.73;;;4.10;99.90;;;;;;2137986;67;20175;-73
2022/01/20 01:22:02;;;;;;;6.57;1.15;;;4.00;99.90;;;;;;2125037;67;20330;-73
2022/01/20 01:24:44;;;;;;;2.83;1.15;;;4.00;99.90;;;;;;2124043;67;20318;-73
2022/01/20 01:27:27;;;;;;;7.80;1.08;;;3.90;99.90;;;;;;2117613;67;20694;-73
2022/01/20 01:32:58;;;;;;;4.45;1.48;;;3.80;99.90;;;;;;2124460;67;20275;-73
2022/01/20 01:35:42;;;;;;;5.43;1.25;;;3.70;99.90;;;;;;2112676;67;20248;-72
2022/01/20 01:38:36;;;;;;;1.92;0.95;;;3.70;99.90;;;;;;2125465;67;20600;-73
2022/01/20 01:41:28;;;;;;;4.80;1.33;;;3.70;99.90;;;;;;2133480;66;20183;-74
2022/01/20 01:44:11;;;;;;;4.38;2.03;;;3.60;99.90;;;;;;2136509;66;20482;-74
2022/01/20 01:46:53;;;;;;;9.65;1.52;;;3.80;99.90;;;;;;2134005;67;20752;-72
2022/01/20 01:49:36;;;;;;;3.30;1.20;;;3.60;99.90;;;;;;2133639;66;20301;-73
2022/01/20 01:52:21;;;;;;;8.00;1.83;;;3.60;99.90;;;;;;2150344;66;20388;-73
2022/01/20 01:55:03;;;;;;;9.40;1.55;;;3.60;99.90;;;;;;2138235;66;20423;-72
2022/01/20 01:57:45;;;;;;;7.97;1.48;;;3.60;99.90;;;;;;2126789;67;20435;-73
2022/01/20 02:00:30;;;;;;;7.15;2.17;;;3.70;99.90;;;;;;2109663;67;20383;-73
2022/01/20 02:03:14;;;;;;;8.65;1.95;;;3.80;99.90;;;;;;2112596;67;20823;-74
2022/01/20 02:08:59;;;;;;;17.63;2.70;;;3.80;99.90;;;;;;2128126;67;20269;-74
2022/01/20 02:21:23;;;;;;;13.85;2.75;;;3.80;99.90;;;;;;2126489;67;20706;-74
2022/01/20 02:24:06;;;;;;;6.32;2.42;;;3.80;99.90;;;;;;2121550;67;20173;-73
2022/01/20 02:26:48;;;;;;;8.88;1.90;;;3.60;99.90;;;;;;2103663;67;20312;-74
2022/01/20 02:29:31;;;;;;;11.13;2.28;;;3.50;99.90;;;;;;2118068;67;20806;-74
2022/01/20 02:32:16;;;;;;;11.57;2.50;;;3.40;99.90;;;;;;2124817;67;20200;-73
2022/01/20 02:34:57;;;;;;;19.98;3.17;;;3.30;99.90;;;;;;2124001;67;20427;-73
2022/01/20 02:37:39;;;;;;;10.32;2.80;;;3.30;99.90;;;;;;2111634;67;20358;-75
2022/01/20 02:46:26;;;;;;;16.10;3.28;;;3.30;99.90;;;;;;2112468;67;20600;-74
2022/01/20 02:49:12;;;;;;;13.23;3.33;;;3.30;99.90;;;;;;2094414;68;20174;-74
2022/01/20 02:51:58;;;;;;;18.02;3.03;;;3.40;99.90;;;;;;2096067;68;20479;-75
2022/01/20 02:54:43;;;;;;;15.90;3.55;;;3.40;99.90;;;;;;2102873;67;20685;-75
2022/01/20 02:57:26;;;;;;;16.90;3.47;;;3.40;99.90;;;;;;2094886;68;20290;-74
2022/01/20 03:00:12;;;;;;;17.85;4.25;;;3.90;99.90;;;;;;2097944;68;20270;-74
2022/01/20 03:02:56;;;;;;;14.85;3.58;;;3.60;99.90;;;;;;2113148;67;20206;-73
2022/01/20 03:05:38;;;;;;;18.23;3.33;;;3.70;99.90;;;;;;2118215;67;20353;-72
2022/01/20 03:08:20;;;;;;;14.15;3.53;;;3.70;99.90;;;;;;2134146;66;20364;-73
2022/01/20 03:11:01;;;;;;;11.40;3.00;;;3.70;99.90;;;;;;2134784;67;20344;-72
2022/01/20 03:13:43;;;;;;;16.45;3.15;;;3.70;99.90;;;;;;2141990;66;20408;-74
2022/01/20 03:16:27;;;;;;;17.27;3.17;;;3.70;99.90;;;;;;2138107;66;20758;-73
2022/01/20 03:19:09;;;;;;;20.45;4.10;;;3.70;99.90;;;;;;2146177;66;20268;-74
2022/01/20 03:21:51;;;;;;;11.25;3.50;;;3.70;99.90;;;;;;2159606;66;20202;-74
2022/01/20 03:24:33;;;;;;;19.50;4.68;;;3.90;99.90;;;;;;2147485;66;20185;-75
2022/01/20 03:27:15;;;;;;;12.05;3.33;;;3.80;99.90;;;;;;2155285;66;20473;-74
2022/01/20 03:29:57;;;;;;;17.73;4.10;;;3.80;99.90;;;;;;2158862;66;20365;-73
2022/01/20 03:32:40;;;;;;;13.48;3.08;;;3.90;99.90;;;;;;2154590;66;20258;-75
2022/01/20 03:35:26;;;;;;;9.10;2.55;;;3.80;99.90;;;;;;2147712;66;20342;-73
2022/01/20 03:38:11;;;;;;;5.97;1.90;;;3.80;99.90;;;;;;2149036;66;20256;-73
2022/01/20 03:40:55;;;;;;;7.30;2.15;;;3.80;99.90;;;;;;2153623;66;20186;-73
2022/01/20 03:43:37;;;;;;;8.02;1.83;;;3.90;99.90;;;;;;2146720;66;20194;-74
2022/01/20 03:46:19;;;;;;;7.50;2.17;;;3.90;99.90;;;;;;2144802;66;20383;-74
2022/01/20 03:49:09;;;;;;;8.65;3.40;;;3.90;99.90;;;;;;2146545;66;20193;-75
2022/01/20 03:51:52;;;;;;;10.20;2.05;;;3.90;99.90;;;;;;2145151;66;20223;-75
2022/01/20 03:54:35;;;;;;;10.05;2.38;;;3.80;99.90;;;;;;2136848;67;20179;-74
2022/01/20 03:57:19;;;;;;;;;;;3.70;99.90;;;;;;2132755;67;20235;-75
2022/01/20 04:00:02;;;;;;;7.22;2.40;;;3.60;99.90;;;;;;2132016;67;20640;-75
2022/01/20 04:02:44;;;;;;;8.82;2.40;;;3.80;99.90;;;;;;2133039;67;20234;-74
2022/01/20 04:05:26;;;;;;;7.90;2.13;;;3.40;99.90;;;;;;2144185;66;20222;-76
2022/01/20 04:08:08;;;;;;;9.63;1.83;;;3.30;99.90;;;;;;2119677;67;20303;-73
2022/01/20 04:10:51;;;;;;;9.95;2.40;;;3.30;99.90;;;;;;2118815;67;20319;-75
2022/01/20 04:13:36;;;;;;;11.48;2.58;;;3.30;99.90;;;;;;2119171;67;20304;-73
2022/01/20 04:17:15;;;;;;;6.93;1.67;;;3.40;99.90;;;;;;2125630;67;20353;-75
2022/01/20 04:19:33;;;;;;;6.20;1.85;;;3.40;99.90;;;;;;2111564;67;20657;-75
2022/01/20 04:22:15;;;;;;;6.35;1.83;;;3.50;99.90;;;;;;2106256;67;20321;-74
2022/01/20 04:24:57;;;;;;;7.47;1.50;;;3.50;99.90;;;;;;2118184;67;20233;-75
2022/01/20 04:27:39;;;;;;;4.32;1.55;;;3.50;99.90;;;;;;2117780;67;20252;-75
2022/01/20 04:30:21;;;;;;;6.68;1.90;;;3.80;99.90;;;;;;2109377;67;20326;-73
2022/01/20 04:33:03;;;;;;;8.70;1.88;;;3.70;99.90;;;;;;1895759;67;15211709;-73
2022/01/20 04:35:47;;;;;;;11.18;2.33;;;3.90;99.90;;;;;;2118403;67;20339;-74
2022/01/20 04:38:32;;;;;;;8.45;2.60;;;3.70;99.90;;;;;;2118052;67;20689;-72
2022/01/20 04:41:14;;;;;;;9.88;2.13;;;3.70;99.90;;;;;;2103817;68;20248;-73
2022/01/20 04:44:01;;;;;;;13.48;3.83;;;3.60;99.90;;;;;;2104853;67;20276;-72
2022/01/20 04:47:00;;;;;;;9.00;2.90;;;3.90;99.90;;;;;;2109044;67;20683;-74
2022/01/20 04:58:45;;;;;;;7.78;2.17;;;3.10;99.90;;;;;;2110353;67;20173;-74
2022/01/20 05:01:31;;;;;;;9.80;2.05;;;3.00;99.90;;;;;;2095720;68;20925;-73
2022/01/20 05:04:19;;;;;;;8.07;2.17;;;3.00;99.90;;;;;;2090640;68;20229;-74
2022/01/20 05:07:00;;;;;;;7.47;1.75;;;3.20;99.90;;;;;;2096424;68;20214;-72
2022/01/20 05:09:44;;;;;;;8.98;1.20;;;3.20;99.90;;;;;;2102980;67;20877;-73
2022/01/20 05:12:48;;;;;;;3.70;1.20;;;3.30;99.90;;;;;;2095351;68;20225;-72
2022/01/20 05:15:32;;;;;;;4.95;0.90;;;3.00;99.90;;;;;;2090883;68;20189;-71
2022/01/20 05:18:15;;;;;;;6.85;0.98;;;2.90;99.90;;;;;;2108516;67;20369;-72
2022/01/20 05:21:00;;;;;;;2.45;0.80;;;2.80;99.90;;;;;;2096676;68;20732;-73
2022/01/20 05:23:45;;;;;;;5.13;0.85;;;2.70;99.90;;;;;;2107544;67;20357;-73
2022/01/20 05:26:27;;;;;;;4.07;1.60;;;2.60;99.90;;;;;;2115883;67;20277;-74
2022/01/20 05:29:09;;;;;;;4.75;1.42;;;2.90;99.90;;;;;;2119285;67;20201;-73
2022/01/20 05:31:51;;;;;;;7.97;1.80;;;2.40;99.90;;;;;;2124506;67;20407;-74
2022/01/20 05:34:33;;;;;;;5.80;1.80;;;2.30;99.90;;;;;;2119931;67;20210;-73
2022/01/20 05:37:16;;;;;;;9.38;2.15;;;2.60;99.90;;;;;;2124660;67;20368;-74
2022/01/20 05:40:01;;;;;;;;;;;2.30;99.90;;;;;;2131583;67;20336;-74
2022/01/20 05:42:43;;;;;;;13.07;2.65;;;2.60;99.90;;;;;;2133189;66;20207;-73
2022/01/20 05:45:28;;;;;;;8.80;2.20;;;2.20;99.90;;;;;;2127486;66;20395;-73
2022/01/20 05:48:14;;;;;;;13.70;2.92;;;2.60;99.90;;;;;;2132491;67;20229;-73
2022/01/20 05:50:56;;;;;;;10.57;2.10;;;2.20;99.90;;;;;;2137002;67;20168;-73
2022/01/20 05:53:38;;;;;;;12.52;3.13;;;2.30;99.90;;;;;;2117401;67;20362;-72
2022/01/20 05:56:20;;;;;;;10.75;2.03;;;2.40;99.90;;;;;;2130383;67;20187;-73
2022/01/20 05:59:05;;;;;;;10.85;2.83;;;2.40;99.90;;;;;;2125378;67;20297;-72
2022/01/20 06:01:54;;;;;;;7.75;2.20;;;2.40;99.90;;;;;;2121874;67;20340;-74
2022/01/20 06:04:39;;;;;;;11.23;3.28;;;2.50;99.90;;;;;;2131322;67;20239;-74
2022/01/20 06:07:23;;;;;;;8.95;2.58;;;2.60;99.90;;;;;;2124808;67;20196;-71
2022/01/20 06:10:06;;;;;;;12.43;2.75;;;2.80;99.90;;;;;;2118422;67;20835;-73
2022/01/20 06:12:48;;;;;;;10.93;2.00;;;2.90;99.90;;;;;;2134841;67;20179;-73
2022/01/20 06:15:29;;;;;;;15.98;2.75;;;2.90;99.90;;;;;;2141505;67;20213;-71
2022/01/20 06:18:11;;;;;;;7.93;2.25;;;3.00;99.90;;;;;;2133427;67;20243;-73
2022/01/20 06:20:53;;;;;;;11.13;2.78;;;3.00;99.90;;;;;;2119905;67;20240;-73
2022/01/20 06:23:36;;;;;;;16.65;3.33;;;3.10;99.90;;;;;;2126905;67;20298;-73
2022/01/20 06:26:17;;;;;;;10.38;3.10;;;3.10;99.90;;;;;;2133025;67;20607;-72
2022/01/20 06:28:59;;;;;;;13.93;3.83;;;3.10;99.90;;;;;;2129658;67;20251;-71
2022/01/20 06:31:42;;;;;;;10.50;2.47;;;3.20;99.90;;;;;;2139885;67;20190;-72
2022/01/20 06:34:23;;;;;;;8.68;2.10;;;3.20;99.90;;;;;;2140106;67;20208;-72
2022/01/20 06:37:07;;;;;;;8.43;2.30;;;3.10;99.90;;;;;;2140210;67;20358;-71
2022/01/20 06:39:51;;;;;;;7.43;2.20;;;2.90;99.90;;;;;;2136919;67;20226;-74
2022/01/20 06:42:33;;;;;;;9.27;2.60;;;2.80;99.90;;;;;;2127515;67;20843;-73
2022/01/20 06:45:17;;;;;;;18.27;2.38;;;3.80;99.90;;;;;;2132560;67;20321;-74
2022/01/20 06:47:59;;;;;;;11.10;2.00;;;2.60;99.90;;;;;;2137769;66;20820;-73
2022/01/20 06:50:40;;;;;;;11.25;2.85;;;2.40;99.90;;;;;;2142754;66;20291;-75
2022/01/20 06:53:22;;;;;;;9.45;2.47;;;2.30;99.90;;;;;;2147056;66;20201;-72
2022/01/20 06:56:05;;;;;;;8.52;2.10;;;2.20;99.90;;;;;;2139831;67;20683;-73
2022/01/20 06:58:47;;;;;;;9.57;3.10;;;2.20;99.90;;;;;;2139738;67;20300;-73
2022/01/20 07:01:29;;;;;;;8.55;2.25;;;2.20;99.90;;;;;;2125142;67;20357;-72
2022/01/20 07:04:13;;;;;;;7.03;1.92;;;2.10;99.90;;;;;;2138718;66;20255;-73
2022/01/20 07:06:55;;;;;;;15.13;2.83;;;2.10;99.90;;;;;;2130453;67;20268;-72
2022/01/20 07:09:39;;;;;;;9.38;2.78;;;2.10;99.90;;;;;;2124807;67;20208;-74
2022/01/20 07:12:23;;;;;;;11.60;2.90;;;2.10;99.90;;;;;;2107778;67;20832;-75
2022/01/20 07:15:06;;;;;;;10.93;2.45;;;2.10;99.90;;;;;;2120171;67;20232;-74
2022/01/20 07:17:48;;;;;;;7.85;1.77;;;2.30;99.90;;;;;;2139039;66;20337;-73
2022/01/20 07:20:30;;;;;;;7.78;1.75;;;2.40;99.90;;;;;;2132244;67;20333;-73
2022/01/20 07:23:11;;;;;;;7.53;1.83;;;2.50;99.90;;;;;;2132124;67;20391;-75
2022/01/20 07:25:53;;;;;;;10.02;2.30;;;2.60;99.90;;;;;;2140588;66;20183;-74
2022/01/20 07:28:35;;;;;;;8.55;2.10;;;2.60;99.90;;;;;;2134396;67;20427;-74
2022/01/20 07:31:22;;;;;;;9.02;2.30;;;2.50;99.90;;;;;;2132962;67;20312;-74
2022/01/20 07:34:04;;;;;;;7.22;2.42;;;2.40;99.90;;;;;;2125952;67;20232;-74
2022/01/20 07:36:45;;;;;;;12.23;2.53;;;2.40;99.90;;;;;;2114008;67;20228;-75
2022/01/20 07:39:27;;;;;;;11.57;2.95;;;2.20;99.90;;;;;;2124682;67;20885;-74
2022/01/20 07:42:12;;;;;;;9.13;2.45;;;2.20;99.90;;;;;;2117763;67;20794;-74
2022/01/20 07:44:54;;;;;;;15.73;3.03;;;2.10;99.90;;;;;;2120169;67;20344;-80
2022/01/20 07:47:36;;;;;;;9.23;2.28;;;2.30;99.90;;;;;;2123540;67;20239;-72
2022/01/20 07:50:21;;;;;;;4.40;2.13;;;2.30;99.90;;;;;;2142122;67;20265;-74
2022/01/20 07:53:05;;;;;;;5.05;1.98;;;2.40;99.90;;;;;;2133491;67;20191;-74
2022/01/20 07:55:47;;;;;;;6.18;1.50;;;2.40;99.90;;;;;;2134891;67;20183;-73
2022/01/20 07:58:28;;;;;;;4.78;1.92;;;2.20;99.90;;;;;;2138450;67;20757;-75
2022/01/20 08:01:11;;;;;;;5.55;1.83;;;2.20;99.90;;;;;;2132489;67;20322;-74
2022/01/20 08:03:55;;;;;;;10.73;2.28;;;2.10;99.90;;;;;;2132187;67;20684;-73
2022/01/20 08:06:38;;;;;;;6.07;2.03;;;2.00;99.90;;;;;;2123193;67;20604;-73
2022/01/20 08:09:22;;;;;;;14.90;2.63;;;2.00;99.90;;;;;;2117662;67;20416;-73
2022/01/20 08:12:06;;;;;;;10.52;3.17;;;2.10;99.90;;;;;;2106943;67;20602;-72
2022/01/20 08:14:47;;;;;;;21.38;4.15;;;2.10;99.90;;;;;;2109197;67;20273;-72
2022/01/20 08:17:29;;;;;;;11.35;2.83;;;2.30;99.90;;;;;;2083201;68;20628;-71
2022/01/20 08:20:13;;;;;;;17.52;3.67;;;2.10;99.90;;;;;;2078805;68;20184;-73
2022/01/20 08:22:55;;;;;;;8.40;2.40;;;2.10;99.90;;;;;;2089261;68;20877;-71
2022/01/20 08:25:36;;;;;;;9.23;2.10;;;2.10;99.90;;;;;;2099533;68;20321;-72
2022/01/20 08:28:23;;;;;;;9.60;2.00;;;2.20;99.90;;;;;;2103076;68;20198;-72
2022/01/20 08:31:09;;;;;;;8.90;2.10;;;2.30;99.90;;;;;;2096962;68;20368;-74
2022/01/20 08:33:53;;;;;;;;;;;2.30;99.90;;;;;;2089557;68;20270;-73
2022/01/20 08:36:35;;;;;;;6.32;2.55;;;2.40;99.90;;;;;;2089630;68;20149;-73
2022/01/20 08:42:14;;;;;;;6.88;2.45;;;2.50;99.90;;;;;;2124245;67;20327;-73
2022/01/20 08:44:58;;;;;;;5.72;1.20;;;2.80;99.90;;;;;;2127252;67;20345;-72
2022/01/20 08:47:42;;;;;;;5.38;1.52;;;3.00;99.90;;;;;;2131856;67;20964;-74
2022/01/20 08:50:25;;;;;;;10.13;1.98;;;3.20;99.90;;;;;;2128763;67;20313;-73
2022/01/20 08:53:13;;;;;;;8.45;1.80;;;3.20;99.90;;;;;;2121363;67;20232;-74
2022/01/20 08:55:55;;;;;;;4.40;1.50;;;3.10;99.90;;;;;;2124814;67;20435;-73
2022/01/20 08:58:43;;;;;;;3.45;1.17;;;3.00;99.90;;;;;;2133223;66;20232;-74
2022/01/20 09:01:28;;;;;;;2.25;0.98;;;2.80;99.90;;;;;;2136767;67;20287;-73
2022/01/20 09:04:11;;;;;;;9.02;1.08;;;2.80;99.90;;;;;;2137488;66;20279;-74
2022/01/20 09:06:56;;;;;;;6.05;1.20;;;2.70;99.90;;;;;;2140888;67;20179;-73
2022/01/20 09:09:46;;;;;;;3.70;1.08;;;2.60;99.90;;;;;;2125058;67;20223;-73
2022/01/20 09:15:29;;;;;;;5.38;1.75;;;2.70;99.90;;;;;;2122157;67;20177;-73
2022/01/20 09:18:14;;;;;;;6.25;1.60;;;2.90;99.90;;;;;;2124136;67;20317;-76
2022/01/20 09:20:56;;;;;;;9.02;2.97;;;3.00;99.90;;;;;;2124527;67;20748;-74
2022/01/20 09:23:44;;;;;;;4.68;1.80;;;2.90;99.90;;;;;;2132068;67;20683;-73
2022/01/20 09:26:29;;;;;;;6.00;2.03;;;2.90;99.90;;;;;;2131639;67;20218;-74
2022/01/20 09:29:11;;;;;;;5.28;1.75;;;2.80;99.90;;;;;;2120391;67;20186;-74
2022/01/20 09:31:53;;;;;;;8.90;1.52;;;2.70;99.90;;;;;;2112574;67;20227;-73
2022/01/20 09:34:35;;;;;;;8.40;2.00;;;2.60;99.90;;;;;;2128454;67;20457;-74
2022/01/20 09:37:16;;;;;;;7.05;1.77;;;3.10;99.90;;;;;;2131370;67;20223;-73
2022/01/20 09:39:58;;;;;;;10.32;2.20;;;2.50;99.90;;;;;;2129563;67;20744;-72
2022/01/20 09:42:40;;;;;;;6.45;1.90;;;2.50;99.90;;;;;;2126756;67;20420;-73
2022/01/20 09:45:21;;;;;;;7.80;2.13;;;2.50;99.90;;;;;;2125406;67;20249;-72
2022/01/20 09:48:04;;;;;;;8.77;2.10;;;2.60;99.90;;;;;;2144059;66;20756;-73
2022/01/20 09:50:47;;;;;;;16.92;2.80;;;2.80;99.90;;;;;;2138067;67;20230;-73
2022/01/20 09:53:28;;;;;;;10.95;2.30;;;3.10;99.90;;;;;;2139968;67;20379;-71
2022/01/20 09:56:13;;;;;;;14.02;2.20;;;3.30;99.90;;;;;;2125700;67;20316;-73
2022/01/20 09:58:55;;;;;;;11.00;2.50;;;3.40;99.90;;;;;;2117610;67;20432;-71
2022/01/20 10:01:42;;;;;;;4.80;1.77;;;3.40;99.90;;;;;;2127486;67;20531;-76
2022/01/20 10:04:35;;;;;;;7.70;2.15;;;3.50;99.90;;;;;;2111209;67;20193;-74
2022/01/20 10:07:18;;;;;;;13.23;2.30;;;3.60;99.90;;;;;;2110901;67;20203;-75
2022/01/20 10:10:00;;;;;;;11.77;2.25;;;3.70;99.90;;;;;;2125502;67;20200;-73
2022/01/20 10:12:44;;;;;;;12.73;2.40;;;3.90;99.90;;;;;;2125485;67;20200;-79
2022/01/20 10:15:29;;;;;;;4.47;1.77;;;4.10;99.90;;;;;;2118327;67;20855;-76
2022/01/20 10:18:14;;;;;;;8.23;1.73;;;4.20;99.90;;;;;;2123913;67;20204;-77
2022/01/20 10:21:02;;;;;;;3.70;1.35;;;4.20;99.90;;;;;;2132432;67;20525;-78
2022/01/20 10:23:48;;;;;;;8.52;1.65;;;4.20;99.90;;;;;;2132185;67;20249;-76
2022/01/20 10:26:30;;;;;;;9.60;1.90;;;4.10;99.90;;;;;;2127718;67;20274;-77
2022/01/20 10:29:14;;;;;;;9.38;2.42;;;3.90;99.90;;;;;;2127350;67;20183;-77
2022/01/20 10:31:56;;;;;;;10.43;2.40;;;3.90;99.90;;;;;;2139801;66;20253;-75
2022/01/20 10:34:38;;;;;;;10.82;1.92;;;4.10;99.90;;;;;;2138945;67;20676;-74
2022/01/20 10:37:24;;;;;;;9.73;2.38;;;4.20;99.90;;;;;;2121181;67;20225;-73
2022/01/20 10:40:16;;;;;;;12.75;2.22;;;4.30;99.90;;;;;;2117600;67;20333;-73
2022/01/20 10:42:59;;;;;;;8.10;2.17;;;4.50;99.90;;;;;;2111735;67;20305;-75
2022/01/20 10:45:43;;;;;;;4.63;1.80;;;4.50;99.90;;;;;;2106370;67;20359;-75
2022/01/20 10:48:25;;;;;;;4.23;1.00;;;5.10;99.90;;;;;;2125145;67;20788;-74
2022/01/20 10:51:23;;;;;;;5.47;1.90;;;4.50;99.90;;;;;;2126213;67;20204;-73
2022/01/20 10:54:15;;;;;;;4.80;1.73;;;4.50;99.90;;;;;;2139429;66;20194;-75
2022/01/20 10:57:00;;;;;;;8.40;1.67;;;4.40;99.90;;;;;;2142553;66;20322;-76
2022/01/20 10:59:52;;;;;;;6.95;2.63;;;4.30;99.90;;;;;;2134027;67;20196;-75
2022/01/20 11:02:35;;;;;;;6.15;1.90;;;4.40;99.90;;;;;;2115454;67;20744;-75
2022/01/20 11:05:17;;;;;;;8.98;2.22;;;4.50;99.90;;;;;;2125583;67;20213;-74
2022/01/20 11:08:00;;;;;;;7.43;1.98;;;4.80;99.90;;;;;;2124709;67;20221;-76
2022/01/20 11:10:45;;;;;;;9.90;2.47;;;4.90;99.90;;;;;;2117533;67;20326;-76
2022/01/20 11:13:27;;;;;;;9.65;2.40;;;5.00;99.90;;;;;;2118155;67;20264;-74
2022/01/20 11:16:10;;;;;;;8.18;2.33;;;5.00;99.90;;;;;;2113021;67;20373;-77
2022/01/20 11:18:52;;;;;;;8.88;2.55;;;4.90;99.90;;;;;;2109324;67;20468;-74
2022/01/20 11:21:36;;;;;;;11.60;2.80;;;4.80;99.90;;;;;;2112001;67;20249;-75
2022/01/20 11:24:37;;;;;;;11.45;3.03;;;4.70;99.90;;;;;;2119935;67;20192;-72
2022/01/20 11:27:19;;;;;;;13.43;2.53;;;4.70;99.90;;;;;;2113710;67;20252;-75
2022/01/20 11:30:33;;;;;;;9.55;2.47;;;4.90;99.90;;;;;;2100127;68;20170;-76
2022/01/20 11:33:16;;;;;;;8.15;3.75;;;5.50;99.90;;;;;;2090891;68;20375;-78
2022/01/20 11:35:59;;;;;;;13.20;2.38;;;6.20;99.90;;;;;;2104628;67;20230;-77
2022/01/20 11:38:47;;;;;;;11.35;3.42;;;6.30;99.90;;;;;;2131762;67;20207;-76
2022/01/20 11:41:46;;;;;;;10.60;3.03;;;6.00;99.90;;;;;;2122669;67;20318;-75
2022/01/20 11:44:31;;;;;;;14.35;2.80;;;5.40;99.90;;;;;;2123114;67;20189;-76
2022/01/20 11:47:13;;;;;;;11.63;2.42;;;5.00;99.90;;;;;;2119530;67;20232;-76
2022/01/20 11:49:55;;;;;;;7.22;2.78;;;4.60;99.90;;;;;;2116938;67;20730;-78
2022/01/20 11:52:37;;;;;;;9.50;2.65;;;4.40;99.90;;;;;;2113340;67;20185;-76
2022/01/20 11:55:20;;;;;;;10.90;2.60;;;4.20;99.90;;;;;;2120524;67;20196;-76
2022/01/20 11:58:10;;;;;;;8.73;2.55;;;4.30;99.90;;;;;;2122746;67;20318;-77
2022/01/20 12:01:04;;;;;;;13.18;2.38;;;4.40;99.90;;;;;;2120175;67;20342;-77
2022/01/20 12:03:53;;;;;;;5.70;2.80;;;4.70;99.90;;;;;;2118157;67;20758;-76
2022/01/20 12:06:41;;;;;;;7.97;2.55;;;5.30;99.90;;;;;;2117706;67;20204;-76
2022/01/20 12:09:31;;;;;;;;;;;5.70;99.90;;;;;;2116711;67;20815;-77
2022/01/20 12:12:25;;;;;;;8.88;2.53;;;5.90;99.90;;;;;;2132068;67;20123;-78
2022/01/20 12:15:10;;;;;;;10.07;2.60;;;5.80;99.90;;;;;;2133646;66;20321;-77
2022/01/20 12:17:53;;;;;;;8.90;2.83;;;5.60;99.90;;;;;;2135642;67;20653;-77
2022/01/20 12:20:36;;;;;;;5.78;2.30;;;5.50;99.90;;;;;;2133595;67;20458;-79
2022/01/20 12:23:19;;;;;;;10.15;2.38;;;5.30;99.90;;;;;;2132302;66;20503;-79
2022/01/20 12:26:06;;;;;;;7.15;2.00;;;5.40;99.90;;;;;;2138054;66;20426;-79
2022/01/20 12:28:58;;;;;;;9.35;2.20;;;5.60;99.90;;;;;;2144845;66;20347;-76
2022/01/20 12:31:50;;;;;;;11.88;4.47;;;5.80;99.90;;;;;;2140897;66;20733;-76
2022/01/20 12:34:34;;;;;;;10.88;2.60;;;5.70;99.90;;;;;;2149703;66;20284;-76
2022/01/20 12:37:16;;;;;;;16.30;2.85;;;5.60;99.90;;;;;;2142288;66;20326;-74
2022/01/20 12:39:58;;;;;;;12.07;3.08;;;5.50;99.90;;;;;;2149844;66;20346;-76
2022/01/20 12:42:42;;;;;;;8.30;3.13;;;5.50;99.90;;;;;;2161483;66;20352;-76
2022/01/20 12:48:29;;;;;;;9.23;2.55;;;6.50;99.90;;;;;;2160021;66;20184;-77
2022/01/20 12:51:11;;;;;;;11.07;3.45;;;7.20;99.90;;;;;;2146428;66;20197;-75
2022/01/20 12:53:56;;;;;;;8.35;3.13;;;7.80;99.90;;;;;;2143445;66;20693;-75
2022/01/20 12:56:44;;;;;;;9.40;2.53;;;8.50;99.90;;;;;;2141921;66;20245;-79
2022/01/20 12:59:34;;;;;;;8.43;2.22;;;9.00;99.90;;;;;;2135144;67;20399;-76
2022/01/20 13:02:29;;;;;;;8.90;2.58;;;8.90;99.90;;;;;;2141816;66;20783;-75
2022/01/20 13:05:11;;;;;;;6.97;1.80;;;9.20;99.90;;;;;;2134202;67;20195;-75
2022/01/20 13:08:04;;;;;;;9.73;2.25;;;8.20;99.90;;;;;;2112561;67;20563;-74
2022/01/20 13:10:47;;;;;;;4.35;1.33;;;7.70;99.90;;;;;;2107694;67;20275;-78
2022/01/20 13:13:33;;;;;;;4.05;1.00;;;7.20;99.90;;;;;;2127103;67;20281;-78
2022/01/20 13:16:17;;;;;;;4.35;0.95;;;6.70;99.90;;;;;;2133871;66;20228;-76
2022/01/20 13:19:04;;;;;;;4.60;0.70;;;6.40;99.90;;;;;;2121980;67;20452;-76
2022/01/20 13:21:52;;;;;;;3.60;1.08;;;6.20;99.90;;;;;;2118628;67;20300;-75
2022/01/20 13:24:35;;;;;;;3.00;1.00;;;6.90;99.90;;;;;;2118146;67;20305;-76
2022/01/20 13:27:17;;;;;;;3.05;1.02;;;6.30;99.90;;;;;;2124030;67;20216;-78
2022/01/20 13:29:59;;;;;;;7.75;1.48;;;7.00;99.90;;;;;;2127121;67;20282;-77
2022/01/20 13:32:49;;;;;;;4.25;1.10;;;7.70;99.90;;;;;;2105525;67;20219;-74
2022/01/20 13:36:02;;;;;;;5.32;1.30;;;8.40;99.90;;;;;;2125483;67;20594;-77
2022/01/20 13:38:57;;;;;;;9.18;2.08;;;8.30;99.90;;;;;;2108114;67;20213;-78
2022/01/20 13:41:41;;;;;;;8.48;2.08;;;8.00;99.90;;;;;;2109289;67;20798;-75
2022/01/20 13:47:24;;;;;;;10.07;2.35;;;6.90;99.90;;;;;;2103301;67;20260;-72
2022/01/20 13:50:17;;;;;;;11.07;2.80;;;7.20;99.90;;;;;;2099889;67;20841;-74
2022/01/20 13:53:11;;;;;;;5.43;2.20;;;7.50;99.90;;;;;;2095950;68;20238;-75
2022/01/20 13:56:00;;;;;;;7.93;1.65;;;7.60;99.90;;;;;;2091246;68;20439;-72
2022/01/20 13:58:42;;;;;;;8.95;2.72;;;7.30;99.90;;;;;;2087237;68;20763;-73
2022/01/20 14:01:32;;;;;;;10.25;2.15;;;7.20;99.90;;;;;;2081609;68;20330;-74
2022/01/20 14:04:15;;;;;;;7.63;2.85;;;6.80;99.90;;;;;;2083642;68;20274;-72
2022/01/20 14:06:59;;;;;;;9.40;2.08;;;6.50;99.90;;;;;;2089150;68;20376;-76
2022/01/20 14:09:41;;;;;;;12.30;2.60;;;6.30;99.90;;;;;;2090193;68;20328;-74
2022/01/20 14:12:23;;;;;;;11.32;3.40;;;6.10;99.90;;;;;;2090455;68;20817;-73
2022/01/20 14:15:05;;;;;;;11.30;2.63;;;5.90;99.90;;;;;;2082222;68;20196;-75
2022/01/20 14:17:53;;;;;;;7.93;2.40;;;5.70;99.90;;;;;;2083837;68;20717;-76
2022/01/20 14:20:37;;;;;;;6.57;2.92;;;5.50;99.90;;;;;;2103633;67;20194;-72
2022/01/20 14:23:21;;;;;;;6.57;2.35;;;5.40;99.90;;;;;;2098509;67;20310;-76
2022/01/20 14:26:05;;;;;;;10.63;3.25;;;5.30;99.90;;;;;;2098856;67;20880;-75
2022/01/20 14:28:47;;;;;;;9.13;2.60;;;5.10;99.90;;;;;;2106510;67;20376;-74
2022/01/20 14:31:33;;;;;;;13.13;2.97;;;4.90;99.90;;;;;;2103132;67;20182;-75
2022/01/20 14:34:17;;;;;;;;;;;4.80;99.90;;;;;;2125483;67;20751;-74
2022/01/20 14:36:59;;;;;;;7.43;2.30;;;4.80;99.90;;;;;;2125232;67;20064;-78
2022/01/20 14:39:42;;;;;;;14.10;3.03;;;5.20;99.90;;;;;;2120339;67;20295;-77
2022/01/20 14:42:27;;;;;;;8.23;2.10;;;5.30;99.90;;;;;;2125947;67;20684;-77
2022/01/20 14:45:12;;;;;;;11.25;3.38;;;5.60;99.90;;;;;;2139373;67;20241;-76
2022/01/20 14:47:53;;;;;;;6.28;2.90;;;5.20;99.90;;;;;;2132702;67;20196;-76
2022/01/20 14:50:36;;;;;;;13.95;2.53;;;5.10;99.90;;;;;;2132161;67;20275;-77
2022/01/20 14:53:19;;;;;;;7.78;2.80;;;5.00;99.90;;;;;;2119220;67;20345;-77
2022/01/20 14:56:05;;;;;;;9.30;2.13;;;4.90;99.90;;;;;;2122675;67;20330;-77
2022/01/20 14:58:46;;;;;;;9.90;2.55;;;4.80;99.90;;;;;;2110136;67;20318;-76
2022/01/20 15:01:28;;;;;;;9.45;2.80;;;4.80;99.90;;;;;;2125638;67;20384;-76
2022/01/20 15:04:12;;;;;;;12.20;4.03;;;4.80;99.90;;;;;;2119022;67;20160;-76
2022/01/20 15:06:57;;;;;;;10.52;2.38;;;4.70;99.90;;;;;;2125548;67;20201;-74
2022/01/20 15:09:43;;;;;;;10.77;3.03;;;4.80;99.90;;;;;;2122448;67;20323;-77
2022/01/20 15:12:31;;;;;;;9.10;2.75;;;4.70;99.90;;;;;;2126026;67;20385;-77
2022/01/20 15:15:14;;;;;;;11.95;2.70;;;4.60;99.90;;;;;;2140252;66;20267;-78
2022/01/20 15:17:57;;;;;;;12.68;3.13;;;4.50;99.90;;;;;;2133173;67;20773;-77
2022/01/20 15:20:41;;;;;;;;;;;4.80;99.90;;;;;;2134699;67;20207;-76
2022/01/20 15:23:22;;;;;;;6.28;2.05;;;4.40;99.90;;;;;;2139566;66;20145;-76
2022/01/20 15:26:08;;;;;;;6.15;2.03;;;4.30;99.90;;;;;;2133465;67;20235;-75
2022/01/20 15:28:58;;;;;;;18.80;3.42;;;4.20;99.90;;;;;;2125615;67;20365;-76